Time,TemperatureF,DewpointF,PressureIn,WindDirection,WindDirectionDegrees,WindSpeedMPH,WindSpeedGustMPH,Humidity,HourlyPrecipIn,Conditions,Clouds,dailyrainin,SoftwareType,DateUTC
2013-05-09 00:00:00,55.5,54.3,29.92,SSE,158,0.0,0.0,96,0.00,,---,0.00,VWS V14.01,2013-05-09 04:00:00,
2013-05-09 00:01:00,55.8,53.2,29.94,SSE,158,0.0,0.0,91,0.01,,---,0.00,VWS V14.01,2013-05-09 04:01:00,
2013-05-09 00:06:00,55.1,52.8,29.94,SSE,158,0.0,0.0,92,0.00,,---,0.00,VWS V14.01,2013-05-09 04:06:00,
2013-05-09 00:11:00,55.6,53.5,29.94,SSE,158,0.0,0.0,93,0.01,,---,0.00,VWS V14.01,2013-05-09 04:11:00,
2013-05-09 00:16:00,55.3,53.4,29.93,SSE,158,0.0,0.0,93,21.79,,---,0.00,VWS V14.01,2013-05-09 04:16:00,
2013-05-09 00:21:00,55.7,53.8,29.94,SSE,158,0.0,0.0,93,0.01,,---,0.00,VWS V14.01,2013-05-09 04:21:00,
2013-05-09 00:26:00,56.0,54.1,29.93,SSE,158,0.0,0.0,93,0.01,,---,0.00,VWS V14.01,2013-05-09 04:26:00,
2013-05-09 00:31:00,54.6,52.8,29.93,SSE,158,0.0,0.0,94,0.00,,---,0.00,VWS V14.01,2013-05-09 04:31:00,
2013-05-09 00:36:00,55.1,53.4,29.93,SSE,158,0.0,0.0,94,0.01,,---,0.00,VWS V14.01,2013-05-09 04:36:00,
2013-05-09 00:41:00,54.6,53.2,29.93,SSE,158,0.0,0.0,95,0.01,,---,0.00,VWS V14.01,2013-05-09 04:41:00,
2013-05-09 00:46:00,54.7,53.2,29.93,SSE,158,0.0,0.0,95,0.00,,---,0.00,VWS V14.01,2013-05-09 04:46:00,
2013-05-09 00:50:00,55.5,54.2,29.93,SSE,158,0.0,0.0,95,0.00,,---,0.00,VWS V14.01,2013-05-09 04:50:00,
2013-05-09 00:55:00,55.5,54.3,29.92,SSE,158,0.0,0.0,96,0.00,,---,0.00,VWS V14.01,2013-05-09 04:55:00,
2013-05-09 01:00:00,55.1,53.9,29.92,SSE,158,0.0,0.0,96,0.00,,---,0.00,VWS V14.01,2013-05-09 05:00:00,
2013-05-09 01:05:00,54.1,52.9,29.92,SSE,158,0.0,0.0,96,0.00,,---,0.00,VWS V14.01,2013-05-09 05:05:00,
2013-05-09 01:10:00,54.5,53.4,29.92,SSE,158,0.0,0.0,96,0.00,,---,0.00,VWS V14.01,2013-05-09 05:10:00,
2013-05-09 01:15:00,54.9,53.8,29.92,SSE,158,0.0,0.0,96,0.00,,---,0.00,VWS V14.01,2013-05-09 05:15:00,
2013-05-09 01:20:00,55.1,54.0,29.91,SSE,158,0.0,0.0,96,0.00,,---,0.00,VWS V14.01,2013-05-09 05:20:00,
2013-05-09 01:25:00,55.1,54.1,29.91,SSE,158,0.0,0.0,96,0.00,,---,0.00,VWS V14.01,2013-05-09 05:25:00,
2013-05-09 01:30:00,55.3,54.3,29.91,SSE,158,0.0,0.0,96,0.00,,---,0.00,VWS V14.01,2013-05-09 05:30:00,
2013-05-09 01:35:00,54.8,53.9,29.91,SSE,158,0.0,0.0,97,0.00,,---,0.00,VWS V14.01,2013-05-09 05:35:00,
2013-05-09 01:40:00,54.7,53.8,29.91,SSE,158,0.0,0.0,97,0.00,,---,0.00,VWS V14.01,2013-05-09 05:40:00,
2013-05-09 01:45:00,54.5,53.6,29.91,SSE,158,0.0,0.0,97,0.00,,---,0.00,VWS V14.01,2013-05-09 05:45:00,
2013-05-09 01:50:00,55.1,54.2,29.91,South,188,0.0,0.0,97,0.00,,---,0.00,VWS V14.01,2013-05-09 05:50:00,
2013-05-09 01:55:00,55.4,54.5,29.90,South,188,0.0,0.0,97,0.00,,---,0.00,VWS V14.01,2013-05-09 05:55:00,
2013-05-09 02:00:00,54.5,53.6,29.90,South,188,0.0,0.0,97,0.00,,---,0.00,VWS V14.01,2013-05-09 06:00:00,
2013-05-09 02:05:00,54.6,53.7,29.90,South,188,0.0,0.0,97,0.00,,---,0.00,VWS V14.01,2013-05-09 06:05:00,
2013-05-09 02:10:00,54.5,53.8,29.90,South,188,0.0,0.0,97,0.00,,---,0.00,VWS V14.01,2013-05-09 06:10:00,
2013-05-09 02:15:00,54.6,53.8,29.90,South,188,0.0,0.0,97,0.00,,---,0.00,VWS V14.01,2013-05-09 06:15:00,
2013-05-09 02:20:00,55.0,54.3,29.89,South,188,0.0,0.0,97,0.96,,---,0.00,VWS V14.01,2013-05-09 06:20:00,
2013-05-09 02:25:00,54.5,54.0,29.89,South,188,0.0,0.0,98,0.00,,---,0.00,VWS V14.01,2013-05-09 06:25:00,
2013-05-09 02:30:00,54.9,54.3,29.89,South,188,0.0,0.0,98,0.00,,---,0.00,VWS V14.01,2013-05-09 06:30:00,
2013-05-09 02:35:00,54.5,53.9,29.89,South,188,0.0,0.0,98,0.00,,---,0.00,VWS V14.01,2013-05-09 06:35:00,
2013-05-09 02:40:00,55.2,54.7,29.89,South,188,0.0,0.0,98,0.00,,---,0.00,VWS V14.01,2013-05-09 06:40:00,
2013-05-09 02:45:00,54.3,53.9,29.89,South,188,0.0,0.0,99,0.00,,---,0.00,VWS V14.01,2013-05-09 06:45:00,
2013-05-09 02:50:00,53.5,53.2,29.89,South,188,0.0,0.0,99,0.01,,---,0.01,VWS V14.01,2013-05-09 06:50:00,
2013-05-09 02:55:00,53.5,53.4,29.89,South,188,0.0,0.0,100,0.01,,---,0.01,VWS V14.01,2013-05-09 06:55:00,
2013-05-09 03:00:00,53.9,53.9,29.89,ENE,72,0.0,0.0,100,0.01,,---,0.01,VWS V14.01,2013-05-09 07:00:00,
2013-05-09 03:05:00,53.8,53.8,29.89,NE,56,0.0,0.0,100,0.01,,---,0.01,VWS V14.01,2013-05-09 07:05:00,
2013-05-09 03:10:00,53.8,53.8,29.88,NE,56,0.0,0.0,100,0.00,,---,0.01,VWS V14.01,2013-05-09 07:10:00,
2013-05-09 03:15:00,55.1,55.1,29.88,East,86,1.9,2.9,100,0.01,,---,0.01,VWS V14.01,2013-05-09 07:15:00,
2013-05-09 03:20:00,53.6,53.6,29.88,East,98,0.4,2.0,100,0.01,,---,0.01,VWS V14.01,2013-05-09 07:20:00,
2013-05-09 03:25:00,53.7,53.7,29.88,East,89,1.9,4.2,100,0.01,,---,0.01,VWS V14.01,2013-05-09 07:25:00,
2013-05-09 03:30:00,54.2,54.2,29.88,East,86,0.0,0.0,100,11.10,,---,0.01,VWS V14.01,2013-05-09 07:30:00,
2013-05-09 03:35:00,54.1,54.1,29.88,SE,142,2.2,2.2,100,0.00,,---,0.01,VWS V14.01,2013-05-09 07:35:00,
2013-05-09 03:40:00,53.8,53.8,29.88,East,101,0.0,0.0,100,0.01,,---,0.01,VWS V14.01,2013-05-09 07:40:00,
2013-05-09 03:45:00,54.3,54.3,29.88,ESE,111,3.3,4.4,100,0.01,,---,0.01,VWS V14.01,2013-05-09 07:45:00,
2013-05-09 03:50:00,53.6,53.6,29.88,East,89,4.8,4.9,100,0.00,,---,0.01,VWS V14.01,2013-05-09 07:50:00,
2013-05-09 03:55:00,53.6,53.6,29.88,ESE,110,4.8,5.7,100,0.00,,---,0.01,VWS V14.01,2013-05-09 07:55:00,
2013-05-09 04:00:00,53.9,53.9,29.88,East,91,1.2,4.3,100,0.00,,---,0.01,VWS V14.01,2013-05-09 08:00:00,
2013-05-09 04:05:00,53.3,53.3,29.87,East,82,4.5,4.5,100,67.48,,---,0.01,VWS V14.01,2013-05-09 08:05:00,
2013-05-09 04:10:00,53.3,53.3,29.87,ENE,68,0.0,0.2,100,0.00,,---,0.01,VWS V14.01,2013-05-09 08:10:00,
2013-05-09 04:15:00,53.5,53.5,29.87,East,82,0.2,0.2,100,0.00,,---,0.01,VWS V14.01,2013-05-09 08:15:00,
2013-05-09 04:20:00,54.2,54.2,29.87,ENE,59,0.7,2.1,100,0.00,,---,0.01,VWS V14.01,2013-05-09 08:20:00,
2013-05-09 04:25:00,54.0,54.0,29.87,ENE,60,4.4,4.9,100,0.00,,---,0.01,VWS V14.01,2013-05-09 08:25:00,
2013-05-09 04:30:00,53.5,53.5,29.87,ENE,70,0.0,0.0,100,0.00,,---,0.01,VWS V14.01,2013-05-09 08:30:00,
2013-05-09 04:35:00,53.5,53.5,29.87,NE,38,0.0,0.0,100,0.00,,---,0.01,VWS V14.01,2013-05-09 08:35:00,
2013-05-09 04:40:00,53.9,53.9,29.88,East,84,0.0,0.0,100,0.00,,---,0.01,VWS V14.01,2013-05-09 08:40:00,
2013-05-09 04:45:00,53.5,53.5,29.89,SE,145,3.2,4.2,100,0.00,,---,0.01,VWS V14.01,2013-05-09 08:45:00,
2013-05-09 04:50:00,53.6,53.6,29.88,SE,131,1.4,2.1,100,0.00,,---,0.01,VWS V14.01,2013-05-09 08:50:00,
2013-05-09 04:55:00,54.0,54.0,29.88,SSE,150,0.0,0.0,100,0.00,,---,0.01,VWS V14.01,2013-05-09 08:55:00,
2013-05-09 05:00:00,53.4,53.4,29.88,East,94,0.0,0.0,100,0.00,,---,0.01,VWS V14.01,2013-05-09 09:00:00,
2013-05-09 05:05:00,53.7,53.7,29.87,East,83,1.2,1.7,100,0.00,,---,0.01,VWS V14.01,2013-05-09 09:05:00,
2013-05-09 05:10:00,53.6,53.6,29.87,East,101,1.3,2.9,100,0.00,,---,0.01,VWS V14.01,2013-05-09 09:10:00,
2013-05-09 05:15:00,53.8,53.8,29.87,NE,42,3.7,3.7,100,0.00,,---,0.01,VWS V14.01,2013-05-09 09:15:00,
2013-05-09 05:20:00,53.9,53.9,29.87,NE,49,0.0,0.9,100,0.00,,---,0.01,VWS V14.01,2013-05-09 09:20:00,
2013-05-09 05:25:00,54.0,54.0,29.87,East,84,1.1,2.1,100,0.00,,---,0.01,VWS V14.01,2013-05-09 09:25:00,
2013-05-09 05:30:00,53.5,53.5,29.87,East,84,0.0,0.0,100,0.00,,---,0.01,VWS V14.01,2013-05-09 09:30:00,
2013-05-09 05:35:00,53.9,53.9,29.87,East,98,0.0,0.0,100,0.01,,---,0.02,VWS V14.01,2013-05-09 09:35:00,
2013-05-09 05:40:00,54.9,54.9,29.87,East,94,0.0,0.0,100,0.01,,---,0.02,VWS V14.01,2013-05-09 09:40:00,
2013-05-09 05:45:00,53.7,53.7,29.87,NE,53,0.0,0.0,100,0.01,,---,0.02,VWS V14.01,2013-05-09 09:45:00,
2013-05-09 05:50:00,53.5,53.5,29.87,ESE,110,0.0,0.0,100,0.01,,---,0.02,VWS V14.01,2013-05-09 09:50:00,
2013-05-09 05:55:00,54.5,54.5,29.87,ENE,68,1.5,1.5,100,0.01,,---,0.02,VWS V14.01,2013-05-09 09:55:00,
2013-05-09 06:00:00,54.1,54.1,29.87,SE,125,0.0,0.0,100,0.01,,---,0.02,VWS V14.01,2013-05-09 10:00:00,
2013-05-09 06:05:00,54.0,54.0,29.87,NE,51,0.0,0.0,100,0.01,,---,0.02,VWS V14.01,2013-05-09 10:05:00,
2013-05-09 06:10:00,53.8,53.8,29.87,SE,125,0.0,0.0,100,11.11,,---,0.02,VWS V14.01,2013-05-09 10:10:00,
2013-05-09 06:15:00,53.5,53.5,29.87,SE,125,0.0,0.0,100,0.01,,---,0.02,VWS V14.01,2013-05-09 10:15:00,
2013-05-09 06:20:00,53.8,53.8,29.87,ENE,72,0.8,0.8,100,0.01,,---,0.02,VWS V14.01,2013-05-09 10:20:00,
2013-05-09 06:25:00,54.5,54.5,29.87,ESE,121,0.0,3.2,100,0.01,,---,0.02,VWS V14.01,2013-05-09 10:25:00,
2013-05-09 06:30:00,54.7,54.7,29.87,East,91,3.0,4.3,100,0.01,,---,0.02,VWS V14.01,2013-05-09 10:30:00,
2013-05-09 06:35:00,54.2,54.2,29.87,NE,41,1.7,1.7,100,0.00,,---,0.02,VWS V14.01,2013-05-09 10:35:00,
2013-05-09 06:40:00,54.3,54.3,29.87,South,180,3.4,3.6,100,0.00,,---,0.02,VWS V14.01,2013-05-09 10:40:00,
2013-05-09 06:44:00,54.2,54.2,29.87,ENE,59,4.5,4.7,100,0.00,,---,0.02,VWS V14.01,2013-05-09 10:44:00,
2013-05-09 06:49:00,54.7,54.7,29.87,SE,135,1.4,5.2,100,0.00,,---,0.02,VWS V14.01,2013-05-09 10:49:00,
2013-05-09 06:54:00,54.6,54.6,29.87,NE,41,0.0,2.5,100,0.00,,---,0.02,VWS V14.01,2013-05-09 10:54:00,
2013-05-09 06:59:00,54.3,54.3,29.87,SE,146,0.0,0.0,100,0.00,,---,0.02,VWS V14.01,2013-05-09 10:59:00,
2013-05-09 07:04:00,54.3,54.3,29.87,ENE,62,0.0,4.0,100,0.00,,---,0.02,VWS V14.01,2013-05-09 11:04:00,
2013-05-09 07:09:00,55.1,55.1,29.87,ESE,121,0.0,1.9,100,0.00,,---,0.02,VWS V14.01,2013-05-09 11:09:00,
2013-05-09 07:14:00,55.4,55.4,29.87,ESE,104,3.0,3.0,100,0.00,,---,0.02,VWS V14.01,2013-05-09 11:14:00,
2013-05-09 07:19:00,54.5,54.5,29.87,East,96,0.6,3.2,100,0.00,,---,0.02,VWS V14.01,2013-05-09 11:19:00,
2013-05-09 07:24:00,55.1,55.1,29.87,East,82,1.1,1.9,100,0.00,,---,0.02,VWS V14.01,2013-05-09 11:24:00,
2013-05-09 07:29:00,54.8,54.8,29.87,SSE,148,0.0,0.0,100,0.00,,---,0.02,VWS V14.01,2013-05-09 11:29:00,
2013-05-09 07:34:00,55.6,55.6,29.87,NE,55,1.1,3.3,100,0.00,,---,0.02,VWS V14.01,2013-05-09 11:34:00,
2013-05-09 07:39:00,54.9,54.9,29.87,SSE,148,0.0,1.6,100,0.00,,---,0.02,VWS V14.01,2013-05-09 11:39:00,
2013-05-09 07:44:00,55.8,55.8,29.87,SSE,148,0.0,0.0,100,0.00,,---,0.02,VWS V14.01,2013-05-09 11:44:00,
2013-05-09 07:49:00,55.6,55.6,29.87,South,173,1.4,2.7,100,0.00,,---,0.02,VWS V14.01,2013-05-09 11:49:00,
2013-05-09 07:54:00,55.0,55.0,29.87,SE,127,0.0,0.0,100,0.00,,---,0.02,VWS V14.01,2013-05-09 11:54:00,
2013-05-09 07:59:00,55.8,55.8,29.87,SE,127,0.0,0.0,100,0.00,,---,0.02,VWS V14.01,2013-05-09 11:59:00,
2013-05-09 08:04:00,55.4,55.4,29.87,North,6,0.0,0.0,100,0.00,,---,0.02,VWS V14.01,2013-05-09 12:04:00,
2013-05-09 08:09:00,56.1,56.1,29.88,North,6,0.0,0.0,100,0.00,,---,0.02,VWS V14.01,2013-05-09 12:09:00,
2013-05-09 08:14:00,56.2,56.2,29.88,NW,314,4.0,4.1,100,0.00,,---,0.02,VWS V14.01,2013-05-09 12:14:00,
2013-05-09 08:19:00,55.3,55.3,29.88,NW,322,3.7,4.6,100,0.00,,---,0.02,VWS V14.01,2013-05-09 12:19:00,
2013-05-09 08:24:00,55.5,55.5,29.87,NW,318,0.0,1.9,100,52.37,,---,0.02,VWS V14.01,2013-05-09 12:24:00,
2013-05-09 08:29:00,55.4,55.4,29.87,NW,316,6.8,8.2,100,0.00,,---,0.02,VWS V14.01,2013-05-09 12:29:00,
2013-05-09 08:34:00,55.4,55.4,29.88,NW,304,5.8,7.5,100,0.00,,---,0.02,VWS V14.01,2013-05-09 12:34:00,
2013-05-09 08:39:00,55.2,55.2,29.88,NW,322,3.6,6.5,100,0.00,,---,0.02,VWS V14.01,2013-05-09 12:39:00,
2013-05-09 08:44:00,55.3,55.3,29.88,WNW,288,5.5,5.5,100,0.00,,---,0.02,VWS V14.01,2013-05-09 12:44:00,
2013-05-09 08:49:00,54.7,54.7,29.87,North,3,2.6,4.5,100,0.00,,---,0.02,VWS V14.01,2013-05-09 12:49:00,
2013-05-09 08:54:00,55.1,55.1,29.88,NNW,346,0.0,0.0,100,0.01,,---,0.03,VWS V14.01,2013-05-09 12:54:00,
2013-05-09 08:59:00,55.2,55.2,29.88,NNW,346,0.0,0.0,100,52.38,,---,0.03,VWS V14.01,2013-05-09 12:59:00,
2013-05-09 09:04:00,55.6,55.6,29.87,NNW,346,0.0,0.0,100,0.01,,---,0.03,VWS V14.01,2013-05-09 13:04:00,
2013-05-09 09:09:00,55.2,55.2,29.88,NNW,346,0.0,0.0,100,0.01,,---,0.03,VWS V14.01,2013-05-09 13:09:00,
2013-05-09 09:14:00,54.8,54.8,29.88,NNW,346,0.0,0.0,100,0.01,,---,0.03,VWS V14.01,2013-05-09 13:14:00,
2013-05-09 09:19:00,54.9,54.9,29.88,NNW,346,0.0,0.0,100,0.01,,---,0.03,VWS V14.01,2013-05-09 13:19:00,
2013-05-09 09:24:00,55.6,55.6,29.88,NNW,346,0.0,0.0,100,0.01,,---,0.03,VWS V14.01,2013-05-09 13:24:00,
2013-05-09 09:29:00,55.1,55.1,29.88,NNW,346,0.0,0.0,100,0.01,,---,0.03,VWS V14.01,2013-05-09 13:29:00,
2013-05-09 09:34:00,55.7,55.7,29.88,NNW,346,0.0,0.0,100,0.01,,---,0.03,VWS V14.01,2013-05-09 13:34:00,
2013-05-09 09:39:00,55.1,55.1,29.88,NNW,346,0.0,0.0,100,0.00,,---,0.03,VWS V14.01,2013-05-09 13:39:00,
2013-05-09 09:44:00,55.2,55.2,29.88,NNW,346,0.0,0.0,100,0.01,,---,0.03,VWS V14.01,2013-05-09 13:44:00,
2013-05-09 09:49:00,55.3,55.3,29.88,NNW,346,0.0,0.0,100,0.01,,---,0.03,VWS V14.01,2013-05-09 13:49:00,
2013-05-09 09:54:00,55.9,55.9,29.88,NNW,346,0.0,0.0,100,0.01,,---,0.03,VWS V14.01,2013-05-09 13:54:00,
2013-05-09 09:59:00,55.7,55.7,29.87,NNW,346,0.0,0.0,100,52.38,,---,0.03,VWS V14.01,2013-05-09 13:59:00,
2013-05-09 10:04:00,55.7,55.7,29.87,North,0,2.7,2.8,100,0.00,,---,0.03,VWS V14.01,2013-05-09 14:04:00,
2013-05-09 10:09:00,55.5,55.5,29.87,NNW,335,1.9,2.1,100,0.00,,---,0.03,VWS V14.01,2013-05-09 14:09:00,
2013-05-09 10:14:00,56.0,56.0,29.87,North,354,2.8,3.2,100,0.00,,---,0.03,VWS V14.01,2013-05-09 14:14:00,
2013-05-09 10:19:00,56.5,56.5,29.87,NNW,340,1.2,2.7,100,0.00,,---,0.03,VWS V14.01,2013-05-09 14:19:00,
2013-05-09 10:24:00,56.6,56.6,29.87,WNW,298,0.0,0.0,100,0.00,,---,0.03,VWS V14.01,2013-05-09 14:24:00,
2013-05-09 10:29:00,56.8,56.8,29.87,WNW,284,3.5,4.3,100,0.00,,---,0.03,VWS V14.01,2013-05-09 14:29:00,
2013-05-09 10:34:00,56.2,56.2,29.87,NW,309,1.6,2.2,100,0.00,,---,0.03,VWS V14.01,2013-05-09 14:34:00,
2013-05-09 10:39:00,56.7,56.7,29.87,NW,316,0.9,1.2,100,0.00,,---,0.03,VWS V14.01,2013-05-09 14:39:00,
2013-05-09 10:44:00,56.9,56.9,29.87,WNW,300,0.0,0.0,100,0.00,,---,0.03,VWS V14.01,2013-05-09 14:44:00,
2013-05-09 10:49:00,56.8,56.8,29.87,NNW,345,0.0,2.2,100,0.00,,---,0.03,VWS V14.01,2013-05-09 14:49:00,
2013-05-09 10:54:00,57.6,57.6,29.87,WNW,295,3.2,4.7,100,0.00,,---,0.03,VWS V14.01,2013-05-09 14:54:00,
2013-05-09 10:59:00,57.6,57.6,29.87,WNW,292,4.5,5.8,100,0.00,,---,0.03,VWS V14.01,2013-05-09 14:59:00,
2013-05-09 11:04:00,58.2,58.2,29.87,West,280,5.9,5.9,100,0.00,,---,0.03,VWS V14.01,2013-05-09 15:04:00,
2013-05-09 11:09:00,58.5,58.5,29.88,NW,304,7.0,7.0,100,0.00,,---,0.03,VWS V14.01,2013-05-09 15:09:00,
2013-05-09 11:14:00,58.1,58.1,29.88,WNW,297,4.3,6.6,100,0.00,,---,0.03,VWS V14.01,2013-05-09 15:14:00,
2013-05-09 11:19:00,59.6,59.3,29.87,NW,321,3.6,6.5,99,0.00,,---,0.03,VWS V14.01,2013-05-09 15:19:00,
2013-05-09 11:24:00,59.7,59.5,29.88,NNW,336,4.5,4.5,99,0.00,,---,0.03,VWS V14.01,2013-05-09 15:24:00,
2013-05-09 11:29:00,59.3,57.9,29.87,NNW,328,7.5,7.5,95,0.01,,---,0.04,VWS V14.01,2013-05-09 15:29:00,
2013-05-09 11:34:00,60.0,58.8,29.87,NW,309,3.4,5.3,96,0.01,,---,0.04,VWS V14.01,2013-05-09 15:34:00,
2013-05-09 11:39:00,60.3,57.0,29.87,WNW,302,2.8,4.1,89,0.01,,---,0.04,VWS V14.01,2013-05-09 15:39:00,
2013-05-09 11:44:00,60.3,55.7,29.87,NNW,346,10.1,10.1,85,0.01,,---,0.04,VWS V14.01,2013-05-09 15:44:00,
2013-05-09 11:49:00,60.0,56.2,29.87,NNW,329,7.7,8.7,87,0.01,,---,0.04,VWS V14.01,2013-05-09 15:49:00,
2013-05-09 11:54:00,60.7,57.2,29.87,NNW,346,4.9,6.9,88,0.00,,---,0.04,VWS V14.01,2013-05-09 15:54:00,
2013-05-09 11:59:00,60.1,55.2,29.87,NNW,346,5.8,6.5,84,0.01,,---,0.04,VWS V14.01,2013-05-09 15:59:00,
2013-05-09 12:04:00,61.4,56.8,29.87,WNW,295,1.4,1.4,85,0.01,,---,0.04,VWS V14.01,2013-05-09 16:04:00,
2013-05-09 12:09:00,60.8,54.7,29.87,NW,312,9.8,11.1,80,0.01,,---,0.04,VWS V14.01,2013-05-09 16:09:00,
2013-05-09 12:14:00,61.4,55.1,29.87,NNW,329,4.3,4.5,80,0.01,,---,0.04,VWS V14.01,2013-05-09 16:14:00,
2013-05-09 12:19:00,61.7,54.4,29.87,WNW,297,5.3,6.3,77,0.00,,---,0.04,VWS V14.01,2013-05-09 16:19:00,
2013-05-09 12:24:00,62.2,54.3,29.87,NW,315,8.5,11.0,75,0.01,,---,0.04,VWS V14.01,2013-05-09 16:24:00,
2013-05-09 12:29:00,60.9,53.4,29.87,NNW,339,8.1,8.1,76,0.00,,---,0.04,VWS V14.01,2013-05-09 16:29:00,
2013-05-09 12:34:00,61.5,54.2,29.87,North,11,8.4,9.1,77,52.39,,---,0.04,VWS V14.01,2013-05-09 16:34:00,
2013-05-09 12:39:00,61.6,54.2,29.86,NNW,333,9.7,9.7,77,0.00,,---,0.04,VWS V14.01,2013-05-09 16:39:00,
2013-05-09 12:44:00,62.8,54.8,29.86,WNW,301,7.6,10.5,75,0.00,,---,0.04,VWS V14.01,2013-05-09 16:44:00,
2013-05-09 12:49:00,62.8,53.7,29.86,NNW,336,8.3,8.5,72,0.00,,---,0.04,VWS V14.01,2013-05-09 16:49:00,
2013-05-09 12:54:00,62.6,52.6,29.86,NW,321,10.6,10.6,70,0.00,,---,0.04,VWS V14.01,2013-05-09 16:54:00,
2013-05-09 12:59:00,62.6,52.8,29.86,NW,323,9.1,9.1,70,0.00,,---,0.04,VWS V14.01,2013-05-09 16:59:00,
2013-05-09 13:04:00,62.4,52.0,29.85,NNW,339,13.0,13.0,69,0.00,,---,0.04,VWS V14.01,2013-05-09 17:04:00,
2013-05-09 13:09:00,63.2,53.0,29.85,NW,314,7.1,7.1,69,52.39,,---,0.04,VWS V14.01,2013-05-09 17:09:00,
2013-05-09 13:14:00,63.1,51.1,29.85,NW,307,6.4,6.4,65,0.00,,---,0.04,VWS V14.01,2013-05-09 17:14:00,
2013-05-09 13:19:00,64.3,51.2,29.85,NW,319,8.8,9.1,62,0.00,,---,0.04,VWS V14.01,2013-05-09 17:19:00,
2013-05-09 13:24:00,64.2,50.0,29.85,NNW,330,10.6,16.5,60,0.00,,---,0.04,VWS V14.01,2013-05-09 17:24:00,
2013-05-09 13:29:00,64.2,50.3,29.85,West,266,15.0,15.0,61,0.00,,---,0.04,VWS V14.01,2013-05-09 17:29:00,
2013-05-09 13:34:00,64.5,51.1,29.85,WSW,257,5.5,6.5,62,0.00,,---,0.04,VWS V14.01,2013-05-09 17:34:00,
2013-05-09 13:39:00,63.9,51.7,29.85,NW,321,9.4,13.4,64,0.01,,---,0.05,VWS V14.01,2013-05-09 17:39:00,
2013-05-09 13:44:00,63.9,52.3,29.85,NNW,345,7.8,10.1,66,0.00,,---,0.05,VWS V14.01,2013-05-09 17:44:00,
2013-05-09 13:49:00,64.1,52.4,29.85,NNE,13,6.2,6.9,66,0.01,,---,0.05,VWS V14.01,2013-05-09 17:49:00,
2013-05-09 13:54:00,64.3,51.5,29.84,WNW,302,6.3,13.3,63,0.01,,---,0.05,VWS V14.01,2013-05-09 17:54:00,
2013-05-09 13:59:00,64.8,51.6,29.85,North,4,12.2,14.2,62,0.01,,---,0.05,VWS V14.01,2013-05-09 17:59:00,
2013-05-09 14:03:00,64.7,52.7,29.85,NNW,346,7.4,10.6,65,0.01,,---,0.05,VWS V14.01,2013-05-09 18:03:00,
2013-05-09 14:08:00,63.7,51.3,29.85,North,359,5.7,7.5,64,0.00,,---,0.05,VWS V14.01,2013-05-09 18:08:00,
2013-05-09 14:13:00,64.9,52.0,29.84,NNW,328,6.5,8.1,63,0.01,,---,0.05,VWS V14.01,2013-05-09 18:13:00,
2013-05-09 14:18:00,64.8,51.8,29.85,NW,326,9.6,9.9,63,0.01,,---,0.05,VWS V14.01,2013-05-09 18:18:00,
2013-05-09 14:23:00,64.6,51.6,29.84,NNW,338,6.6,7.6,63,0.01,,---,0.05,VWS V14.01,2013-05-09 18:23:00,
2013-05-09 14:28:00,64.9,51.7,29.84,WNW,290,8.6,11.8,62,0.01,,---,0.05,VWS V14.01,2013-05-09 18:28:00,
2013-05-09 14:33:00,65.5,51.4,29.84,NNW,336,9.2,14.1,60,0.00,,---,0.05,VWS V14.01,2013-05-09 18:33:00,
2013-05-09 14:38:00,65.6,52.1,29.84,NE,35,5.5,9.8,62,0.00,,---,0.05,VWS V14.01,2013-05-09 18:38:00,
2013-05-09 14:43:00,65.1,52.0,29.84,North,352,9.8,12.2,63,0.00,,---,0.05,VWS V14.01,2013-05-09 18:43:00,
2013-05-09 14:48:00,65.2,52.9,29.84,NW,318,9.4,9.6,64,0.00,,---,0.05,VWS V14.01,2013-05-09 18:48:00,
2013-05-09 14:53:00,66.0,52.1,29.84,NNW,339,5.4,6.5,61,0.00,,---,0.05,VWS V14.01,2013-05-09 18:53:00,
2013-05-09 14:58:00,65.1,52.0,29.84,WNW,301,5.7,8.8,63,0.00,,---,0.05,VWS V14.01,2013-05-09 18:58:00,
2013-05-09 15:03:00,66.1,52.8,29.84,NW,311,8.8,8.8,62,0.00,,---,0.05,VWS V14.01,2013-05-09 19:03:00,
2013-05-09 15:08:00,65.0,49.5,29.84,WNW,290,8.4,11.1,57,0.00,,---,0.05,VWS V14.01,2013-05-09 19:08:00,
2013-05-09 15:13:00,65.2,50.8,29.84,West,276,3.6,7.0,60,0.00,,---,0.05,VWS V14.01,2013-05-09 19:13:00,
2013-05-09 15:18:00,65.6,51.1,29.84,WNW,300,5.0,5.2,59,0.00,,---,0.05,VWS V14.01,2013-05-09 19:18:00,
2013-05-09 15:23:00,65.4,50.8,29.84,West,280,3.4,9.1,59,0.00,,---,0.05,VWS V14.01,2013-05-09 19:23:00,
2013-05-09 15:28:00,65.4,51.3,29.84,West,267,4.2,8.1,60,0.00,,---,0.05,VWS V14.01,2013-05-09 19:28:00,
2013-05-09 15:33:00,65.8,50.9,29.84,WNW,294,10.8,10.8,59,0.01,,---,0.06,VWS V14.01,2013-05-09 19:33:00,
2013-05-09 15:38:00,66.4,51.0,29.84,WSW,240,6.2,9.1,58,0.01,,---,0.06,VWS V14.01,2013-05-09 19:38:00,
2013-05-09 15:43:00,65.0,49.9,29.84,WNW,295,8.7,9.4,58,0.01,,---,0.06,VWS V14.01,2013-05-09 19:43:00,
2013-05-09 15:48:00,65.1,50.2,29.84,West,263,9.9,14.3,59,0.00,,---,0.06,VWS V14.01,2013-05-09 19:48:00,
2013-05-09 15:53:00,65.0,50.3,29.84,West,270,8.8,9.5,59,0.01,,---,0.06,VWS V14.01,2013-05-09 19:53:00,
2013-05-09 15:58:00,64.6,50.4,29.84,West,273,6.6,8.1,60,0.01,,---,0.06,VWS V14.01,2013-05-09 19:58:00,
2013-05-09 16:03:00,64.6,50.7,29.84,WSW,243,4.0,6.6,61,0.01,,---,0.06,VWS V14.01,2013-05-09 20:03:00,
2013-05-09 16:08:00,65.0,51.1,29.84,NW,309,6.2,6.2,61,0.01,,---,0.06,VWS V14.01,2013-05-09 20:08:00,
2013-05-09 16:13:00,64.4,50.5,29.84,West,271,3.9,6.3,60,0.01,,---,0.06,VWS V14.01,2013-05-09 20:13:00,
2013-05-09 16:18:00,64.4,50.2,29.84,WNW,285,8.4,11.4,60,0.01,,---,0.06,VWS V14.01,2013-05-09 20:18:00,
2013-05-09 16:23:00,65.0,51.4,29.84,WNW,301,5.2,7.6,61,0.01,,---,0.06,VWS V14.01,2013-05-09 20:23:00,
2013-05-09 16:28:00,65.4,51.8,29.84,West,259,7.5,8.1,61,0.01,,---,0.06,VWS V14.01,2013-05-09 20:28:00,
2013-05-09 16:33:00,65.3,52.0,29.84,WNW,292,5.1,5.1,62,0.00,,---,0.06,VWS V14.01,2013-05-09 20:33:00,
2013-05-09 16:38:00,65.0,51.1,29.84,West,260,8.1,10.2,61,0.00,,---,0.06,VWS V14.01,2013-05-09 20:38:00,
2013-05-09 16:43:00,65.5,52.0,29.84,WNW,302,2.1,4.5,62,0.00,,---,0.06,VWS V14.01,2013-05-09 20:43:00,
2013-05-09 16:48:00,65.4,52.0,29.84,West,274,7.1,7.7,62,0.00,,---,0.06,VWS V14.01,2013-05-09 20:48:00,
2013-05-09 16:53:00,65.6,52.0,29.84,WNW,288,4.3,8.9,61,0.00,,---,0.06,VWS V14.01,2013-05-09 20:53:00,
2013-05-09 16:58:00,65.3,51.5,29.84,West,273,5.4,6.5,61,52.41,,---,0.06,VWS V14.01,2013-05-09 20:58:00,
2013-05-09 17:03:00,66.0,51.0,29.84,SW,235,6.5,9.0,58,0.00,,---,0.06,VWS V14.01,2013-05-09 21:03:00,
2013-05-09 17:08:00,66.1,51.3,29.84,West,271,8.1,8.4,59,0.00,,---,0.06,VWS V14.01,2013-05-09 21:08:00,
2013-05-09 17:13:00,66.3,50.6,29.84,NW,319,7.4,9.6,57,0.00,,---,0.06,VWS V14.01,2013-05-09 21:13:00,
2013-05-09 17:18:00,66.0,49.6,29.84,West,260,5.3,9.9,55,0.00,,---,0.06,VWS V14.01,2013-05-09 21:18:00,
2013-05-09 17:23:00,66.8,50.4,29.84,West,259,6.7,9.6,56,0.00,,---,0.06,VWS V14.01,2013-05-09 21:23:00,
2013-05-09 17:28:00,67.1,50.9,29.84,WSW,252,5.9,6.2,56,0.00,,---,0.06,VWS V14.01,2013-05-09 21:28:00,
2013-05-09 17:33:00,66.4,50.8,29.84,West,274,8.1,10.1,57,52.41,,---,0.06,VWS V14.01,2013-05-09 21:33:00,
2013-05-09 17:38:00,66.6,49.8,29.84,WSW,252,7.8,11.4,55,0.00,,---,0.06,VWS V14.01,2013-05-09 21:38:00,
2013-05-09 17:43:00,66.3,49.6,29.84,WSW,253,10.9,11.0,55,0.00,,---,0.06,VWS V14.01,2013-05-09 21:43:00,
2013-05-09 17:48:00,67.1,50.5,29.83,West,266,7.0,9.3,55,0.00,,---,0.06,VWS V14.01,2013-05-09 21:48:00,
2013-05-09 17:53:00,66.2,49.7,29.83,WSW,253,3.2,4.7,55,0.00,,---,0.06,VWS V14.01,2013-05-09 21:53:00,
2013-05-09 17:58:00,66.4,50.1,29.83,NW,307,4.9,7.1,56,0.00,,---,0.06,VWS V14.01,2013-05-09 21:58:00,
2013-05-09 18:03:00,66.1,50.2,29.84,West,266,5.5,5.5,56,0.00,,---,0.06,VWS V14.01,2013-05-09 22:03:00,
2013-05-09 18:08:00,65.4,49.8,29.84,West,270,6.3,9.4,57,0.00,,---,0.06,VWS V14.01,2013-05-09 22:08:00,
2013-05-09 18:13:00,65.9,49.8,29.84,SW,236,6.1,8.2,56,0.00,,---,0.06,VWS V14.01,2013-05-09 22:13:00,
2013-05-09 18:18:00,66.7,50.5,29.84,WNW,297,4.1,4.1,56,0.00,,---,0.06,VWS V14.01,2013-05-09 22:18:00,
2013-05-09 18:23:00,66.0,49.6,29.84,West,262,4.2,6.8,55,0.01,,---,0.07,VWS V14.01,2013-05-09 22:23:00,
2013-05-09 18:28:00,66.3,49.9,29.84,NW,309,1.6,1.7,56,0.00,,---,0.07,VWS V14.01,2013-05-09 22:28:00,
2013-05-09 18:33:00,66.2,50.0,29.84,NW,323,2.1,5.0,56,0.01,,---,0.07,VWS V14.01,2013-05-09 22:33:00,
2013-05-09 18:38:00,67.4,51.3,29.84,NW,305,5.0,7.4,56,0.01,,---,0.07,VWS V14.01,2013-05-09 22:38:00,
2013-05-09 18:43:00,65.7,49.8,29.85,WNW,302,5.0,6.6,56,0.01,,---,0.07,VWS V14.01,2013-05-09 22:43:00,
2013-05-09 18:48:00,65.9,50.4,29.85,NW,315,1.9,2.0,57,0.01,,---,0.07,VWS V14.01,2013-05-09 22:48:00,
2013-05-09 18:53:00,66.8,51.2,29.84,NW,308,1.6,2.2,57,0.00,,---,0.07,VWS V14.01,2013-05-09 22:53:00,
2013-05-09 18:58:00,67.2,51.6,29.84,West,264,3.9,3.9,57,0.01,,---,0.07,VWS V14.01,2013-05-09 22:58:00,
2013-05-09 19:03:00,66.8,51.3,29.84,WNW,290,2.6,2.8,57,0.01,,---,0.07,VWS V14.01,2013-05-09 23:03:00,
2013-05-09 19:08:00,67.8,52.5,29.84,NW,305,0.9,0.9,58,0.01,,---,0.07,VWS V14.01,2013-05-09 23:08:00,
2013-05-09 19:13:00,66.1,50.7,29.85,West,278,2.9,3.8,58,0.01,,---,0.07,VWS V14.01,2013-05-09 23:13:00,
2013-05-09 19:18:00,66.8,51.4,29.85,West,280,2.6,2.9,58,0.00,,---,0.07,VWS V14.01,2013-05-09 23:18:00,
2013-05-09 19:23:00,66.6,51.7,29.85,WSW,249,0.0,0.0,59,0.00,,---,0.07,VWS V14.01,2013-05-09 23:23:00,
2013-05-09 19:28:00,66.7,51.9,29.85,SW,217,1.1,1.2,59,0.00,,---,0.07,VWS V14.01,2013-05-09 23:28:00,
2013-05-09 19:33:00,66.1,51.4,29.85,West,277,1.3,1.3,59,52.42,,---,0.07,VWS V14.01,2013-05-09 23:33:00,
2013-05-09 19:38:00,65.9,51.4,29.86,NW,311,1.6,1.7,60,0.00,,---,0.07,VWS V14.01,2013-05-09 23:38:00,
2013-05-09 19:43:00,65.7,51.5,29.86,West,278,0.0,0.0,60,0.00,,---,0.07,VWS V14.01,2013-05-09 23:43:00,
2013-05-09 19:48:00,66.0,52.1,29.86,West,278,0.0,0.0,61,0.00,,---,0.07,VWS V14.01,2013-05-09 23:48:00,
2013-05-09 19:53:00,65.7,52.0,29.86,West,278,0.0,0.0,61,0.00,,---,0.07,VWS V14.01,2013-05-09 23:53:00,
2013-05-09 19:58:00,65.6,52.4,29.86,West,278,0.0,0.0,62,0.00,,---,0.07,VWS V14.01,2013-05-09 23:58:00,
2013-05-09 20:03:00,65.0,52.4,29.86,West,278,0.0,0.0,64,0.00,,---,0.07,VWS V14.01,2013-05-10 00:03:00,
2013-05-09 20:08:00,65.1,53.4,29.86,West,278,0.0,0.0,66,0.00,,---,0.07,VWS V14.01,2013-05-10 00:08:00,
2013-05-09 20:13:00,64.9,53.7,29.87,West,278,0.0,0.0,67,0.00,,---,0.07,VWS V14.01,2013-05-10 00:13:00,
2013-05-09 20:18:00,64.8,54.2,29.87,West,278,0.0,0.0,68,0.00,,---,0.07,VWS V14.01,2013-05-10 00:18:00,
2013-05-09 20:23:00,64.0,53.8,29.87,West,278,0.0,0.0,70,52.42,,---,0.07,VWS V14.01,2013-05-10 00:23:00,
2013-05-09 20:28:00,64.1,54.3,29.87,West,278,0.0,0.0,70,0.00,,---,0.07,VWS V14.01,2013-05-10 00:28:00,
2013-05-09 20:33:00,63.1,53.6,29.87,West,278,0.0,0.0,71,0.00,,---,0.07,VWS V14.01,2013-05-10 00:33:00,
2013-05-09 20:37:00,63.5,54.0,29.88,West,278,0.0,0.0,71,0.00,,---,0.07,VWS V14.01,2013-05-10 00:37:00,
2013-05-09 20:42:00,63.5,54.1,29.88,West,278,0.0,0.0,72,0.00,,---,0.07,VWS V14.01,2013-05-10 00:42:00,
2013-05-09 20:47:00,62.2,53.2,29.88,West,278,0.0,0.0,72,52.42,,---,0.07,VWS V14.01,2013-05-10 00:47:00,
2013-05-09 20:52:00,62.2,53.5,29.88,West,278,0.0,0.0,73,0.00,,---,0.07,VWS V14.01,2013-05-10 00:52:00,
2013-05-09 20:57:00,62.2,53.8,29.88,SW,225,1.7,2.2,74,0.00,,---,0.07,VWS V14.01,2013-05-10 00:57:00,
2013-05-09 21:02:00,61.0,52.8,29.88,West,260,0.4,0.9,74,0.00,,---,0.07,VWS V14.01,2013-05-10 01:02:00,
2013-05-09 21:07:00,61.5,53.8,29.88,West,260,0.0,0.0,76,0.00,,---,0.07,VWS V14.01,2013-05-10 01:07:00,
2013-05-09 21:12:00,61.1,54.0,29.88,West,260,0.0,0.0,77,0.00,,---,0.07,VWS V14.01,2013-05-10 01:12:00,
2013-05-09 21:17:00,60.8,53.8,29.89,WSW,255,1.7,2.2,78,0.00,,---,0.07,VWS V14.01,2013-05-10 01:17:00,
2013-05-09 21:22:00,61.8,54.6,29.88,SSW,207,0.0,0.0,77,0.00,,---,0.07,VWS V14.01,2013-05-10 01:22:00,
2013-05-09 21:27:00,60.4,52.9,29.89,SSW,210,1.3,2.4,76,0.00,,---,0.07,VWS V14.01,2013-05-10 01:27:00,
2013-05-09 21:30:00,61.1,54.0,29.89,WNW,292,1.1,2.7,77,0.01,,---,0.08,VWS V14.01,2013-05-10 01:30:00,
2013-05-09 21:32:00,61.4,54.0,29.89,South,172,0.4,2.4,76,0.00,,---,0.07,VWS V14.01,2013-05-10 01:32:00,
2013-05-09 21:37:00,60.3,53.0,29.88,SW,214,1.9,2.5,77,0.00,,---,0.07,VWS V14.01,2013-05-10 01:37:00,
2013-05-09 21:42:00,60.7,53.5,29.89,West,266,0.0,1.1,77,0.00,,---,0.07,VWS V14.01,2013-05-10 01:42:00,
2013-05-09 21:47:00,61.1,54.0,29.89,West,273,1.4,2.7,77,0.01,,---,0.08,VWS V14.01,2013-05-10 01:47:00,
2013-05-09 21:52:00,60.5,53.4,29.89,WSW,248,0.3,2.1,78,0.01,,---,0.08,VWS V14.01,2013-05-10 01:52:00,
2013-05-09 21:57:00,60.5,53.5,29.88,SW,229,0.0,1.1,78,0.01,,---,0.08,VWS V14.01,2013-05-10 01:57:00,
2013-05-09 22:02:00,60.3,53.3,29.89,West,280,2.2,2.2,78,0.01,,---,0.08,VWS V14.01,2013-05-10 02:02:00,
2013-05-09 22:07:00,61.1,54.2,29.89,West,260,1.4,1.7,78,0.01,,---,0.08,VWS V14.01,2013-05-10 02:07:00,
2013-05-09 22:12:00,59.9,53.2,29.89,West,259,1.1,1.1,78,0.01,,---,0.08,VWS V14.01,2013-05-10 02:12:00,
2013-05-09 22:17:00,60.4,53.8,29.89,South,188,0.0,0.0,79,0.01,,---,0.08,VWS V14.01,2013-05-10 02:17:00,
2013-05-09 22:22:00,60.0,53.5,29.89,WNW,290,2.5,2.9,79,52.59,,---,0.08,VWS V14.01,2013-05-10 02:22:00,
2013-05-09 22:27:00,60.4,53.9,29.89,WSW,256,0.4,1.4,79,0.01,,---,0.08,VWS V14.01,2013-05-10 02:27:00,
2013-05-09 22:32:00,60.5,54.0,29.89,WSW,256,0.0,0.0,79,0.01,,---,0.08,VWS V14.01,2013-05-10 02:32:00,
2013-05-09 22:37:00,60.5,54.1,29.89,WSW,256,0.0,0.0,79,0.01,,---,0.08,VWS V14.01,2013-05-10 02:37:00,
2013-05-09 22:42:00,60.6,54.3,29.89,WSW,256,0.0,0.0,80,0.01,,---,0.08,VWS V14.01,2013-05-10 02:42:00,
2013-05-09 22:47:00,60.2,53.9,29.89,WSW,256,1.2,1.7,80,0.00,,---,0.08,VWS V14.01,2013-05-10 02:47:00,
2013-05-09 22:52:00,59.4,53.1,29.89,WSW,250,0.9,2.1,80,0.00,,---,0.08,VWS V14.01,2013-05-10 02:52:00,
2013-05-09 22:57:00,59.9,53.6,29.89,West,278,1.0,9.0,80,0.00,,---,0.08,VWS V14.01,2013-05-10 02:57:00,
2013-05-09 23:02:00,60.2,54.0,29.89,West,276,1.7,2.2,80,0.00,,---,0.08,VWS V14.01,2013-05-10 03:02:00,
2013-05-09 23:07:00,59.8,53.7,29.89,WNW,291,1.6,1.6,80,0.00,,---,0.08,VWS V14.01,2013-05-10 03:07:00,
2013-05-09 23:12:00,59.3,53.3,29.89,WNW,295,1.2,1.5,80,0.00,,---,0.08,VWS V14.01,2013-05-10 03:12:00,
2013-05-09 23:17:00,59.5,53.5,29.89,West,266,2.2,2.2,80,0.00,,---,0.08,VWS V14.01,2013-05-10 03:17:00,
2013-05-09 23:22:00,60.0,54.0,29.89,West,274,0.8,1.7,80,0.00,,---,0.08,VWS V14.01,2013-05-10 03:22:00,
2013-05-09 23:27:00,59.7,53.8,29.89,West,273,0.0,0.0,81,0.00,,---,0.08,VWS V14.01,2013-05-10 03:27:00,
2013-05-09 23:32:00,59.1,53.3,29.89,West,273,0.0,0.0,81,0.00,,---,0.08,VWS V14.01,2013-05-10 03:32:00,
2013-05-09 23:37:00,58.7,53.1,29.89,West,260,0.7,1.3,82,45.07,,---,0.08,VWS V14.01,2013-05-10 03:37:00,
2013-05-09 23:42:00,59.4,54.0,29.89,WSW,245,0.5,0.5,82,0.00,,---,0.08,VWS V14.01,2013-05-10 03:42:00,
2013-05-09 23:47:00,58.8,53.7,29.89,WNW,284,0.7,2.5,83,0.00,,---,0.08,VWS V14.01,2013-05-10 03:47:00,
2013-05-09 23:52:00,58.8,54.0,29.89,West,269,1.8,3.1,84,0.00,,---,0.08,VWS V14.01,2013-05-10 03:52:00,
2013-05-09 23:57:00,59.0,54.2,29.90,West,269,1.5,1.9,84,0.00,,---,0.08,VWS V14.01,2013-05-10 03:57:00,